sensor_id;sensor_type;location;lat;lon;timestamp;temperature;humidity
4399;DHT22;2213;49.720;7.296;2023-05-14T00:00:07;11.30;99.90
4399;DHT22;2213;49.720;7.296;2023-05-14T00:02:37;11.20;99.90
4399;DHT22;2213;49.720;7.296;2023-05-14T00:05:08;11.20;99.90
4399;DHT22;2213;49.720;7.296;2023-05-14T00:07:37;11.20;99.90
4399;DHT22;2213;49.720;7.296;2023-05-14T00:10:06;11.20;99.90
4399;DHT22;2213;49.720;7.296;2023-05-14T00:12:35;11.20;99.90
4399;DHT22;2213;49.720;7.296;2023-05-14T00:15:06;11.10;99.90
4399;DHT22;2213;49.720;7.296;2023-05-14T00:17:36;11.10;99.90
4399;DHT22;2213;49.720;7.296;2023-05-14T00:20:05;11.10;99.90
4399;DHT22;2213;49.720;7.296;2023-05-14T00:22:34;11.00;99.90
4399;DHT22;2213;49.720;7.296;2023-05-14T00:25:05;11.10;99.90
4399;DHT22;2213;49.720;7.296;2023-05-14T00:27:35;11.00;99.90
4399;DHT22;2213;49.720;7.296;2023-05-14T00:30:07;11.00;99.90
4399;DHT22;2213;49.720;7.296;2023-05-14T00:32:35;11.00;99.90
4399;DHT22;2213;49.720;7.296;2023-05-14T00:35:05;10.90;99.90
4399;DHT22;2213;49.720;7.296;2023-05-14T00:37:35;10.90;99.90
4399;DHT22;2213;49.720;7.296;2023-05-14T00:40:06;10.90;99.90
4399;DHT22;2213;49.720;7.296;2023-05-14T00:42:37;10.80;99.90
4399;DHT22;2213;49.720;7.296;2023-05-14T00:45:09;10.80;99.90
4399;DHT22;2213;49.720;7.296;2023-05-14T00:47:38;10.80;99.90
4399;DHT22;2213;49.720;7.296;2023-05-14T00:50:09;10.80;99.90
4399;DHT22;2213;49.720;7.296;2023-05-14T00:52:39;10.80;99.90
4399;DHT22;2213;49.720;7.296;2023-05-14T00:55:09;10.70;99.90
4399;DHT22;2213;49.720;7.296;2023-05-14T00:57:43;10.70;99.90
4399;DHT22;2213;49.720;7.296;2023-05-14T01:00:15;10.70;99.90
4399;DHT22;2213;49.720;7.296;2023-05-14T01:02:45;10.70;99.90
4399;DHT22;2213;49.720;7.296;2023-05-14T01:05:14;10.60;99.90
4399;DHT22;2213;49.720;7.296;2023-05-14T01:07:49;10.60;99.90
4399;DHT22;2213;49.720;7.296;2023-05-14T01:10:30;10.60;99.90
4399;DHT22;2213;49.720;7.296;2023-05-14T01:13:12;10.50;99.90
4399;DHT22;2213;49.720;7.296;2023-05-14T01:15:48;10.50;99.90
4399;DHT22;2213;49.720;7.296;2023-05-14T01:18:17;10.50;99.90
4399;DHT22;2213;49.720;7.296;2023-05-14T01:20:49;10.50;99.90
4399;DHT22;2213;49.720;7.296;2023-05-14T01:23:19;10.40;99.90
4399;DHT22;2213;49.720;7.296;2023-05-14T01:25:48;10.40;99.90
4399;DHT22;2213;49.720;7.296;2023-05-14T01:28:18;10.50;99.90
4399;DHT22;2213;49.720;7.296;2023-05-14T01:30:56;10.40;99.90
4399;DHT22;2213;49.720;7.296;2023-05-14T01:33:28;10.40;99.90
4399;DHT22;2213;49.720;7.296;2023-05-14T01:36:01;10.30;99.90
4399;DHT22;2213;49.720;7.296;2023-05-14T01:38:32;10.30;99.90
4399;DHT22;2213;49.720;7.296;2023-05-14T01:41:02;10.30;99.90
4399;DHT22;2213;49.720;7.296;2023-05-14T01:43:32;10.30;99.90
4399;DHT22;2213;49.720;7.296;2023-05-14T01:46:01;10.20;99.90
4399;DHT22;2213;49.720;7.296;2023-05-14T01:48:30;10.30;99.90
4399;DHT22;2213;49.720;7.296;2023-05-14T01:50:59;10.30;99.90
4399;DHT22;2213;49.720;7.296;2023-05-14T01:53:29;10.20;99.90
4399;DHT22;2213;49.720;7.296;2023-05-14T01:56:01;10.20;99.90
4399;DHT22;2213;49.720;7.296;2023-05-14T01:58:29;10.10;99.90
4399;DHT22;2213;49.720;7.296;2023-05-14T02:00:58;10.10;99.90
4399;DHT22;2213;49.720;7.296;2023-05-14T02:03:28;10.10;99.90
4399;DHT22;2213;49.720;7.296;2023-05-14T02:05:58;10.10;99.90
4399;DHT22;2213;49.720;7.296;2023-05-14T02:08:27;10.00;99.90
4399;DHT22;2213;49.720;7.296;2023-05-14T02:10:57;10.00;99.90
4399;DHT22;2213;49.720;7.296;2023-05-14T02:13:27;10.00;99.90
4399;DHT22;2213;49.720;7.296;2023-05-14T02:15:56;10.00;99.90
4399;DHT22;2213;49.720;7.296;2023-05-14T02:18:25;10.00;99.90
4399;DHT22;2213;49.720;7.296;2023-05-14T02:20:53;10.00;99.90
4399;DHT22;2213;49.720;7.296;2023-05-14T02:23:23;10.00;99.90
4399;DHT22;2213;49.720;7.296;2023-05-14T02:26:05;9.90;99.90
4399;DHT22;2213;49.720;7.296;2023-05-14T02:28:35;9.90;99.90
4399;DHT22;2213;49.720;7.296;2023-05-14T02:31:04;9.90;99.90
4399;DHT22;2213;49.720;7.296;2023-05-14T02:33:33;9.90;99.90
4399;DHT22;2213;49.720;7.296;2023-05-14T02:36:03;9.90;99.90
4399;DHT22;2213;49.720;7.296;2023-05-14T02:38:32;9.80;99.90
4399;DHT22;2213;49.720;7.296;2023-05-14T02:41:00;9.80;99.90
4399;DHT22;2213;49.720;7.296;2023-05-14T02:43:31;9.80;99.90
4399;DHT22;2213;49.720;7.296;2023-05-14T02:45:59;9.70;99.90
4399;DHT22;2213;49.720;7.296;2023-05-14T02:48:28;9.70;99.90
4399;DHT22;2213;49.720;7.296;2023-05-14T02:50:57;9.70;99.90
4399;DHT22;2213;49.720;7.296;2023-05-14T02:53:25;9.70;99.90
4399;DHT22;2213;49.720;7.296;2023-05-14T02:55:55;9.60;99.90
4399;DHT22;2213;49.720;7.296;2023-05-14T02:58:23;9.60;99.90
4399;DHT22;2213;49.720;7.296;2023-05-14T03:00:55;9.60;99.90
4399;DHT22;2213;49.720;7.296;2023-05-14T03:03:25;9.60;99.90
4399;DHT22;2213;49.720;7.296;2023-05-14T03:05:56;9.60;99.90
4399;DHT22;2213;49.720;7.296;2023-05-14T03:08:26;9.60;99.90
4399;DHT22;2213;49.720;7.296;2023-05-14T03:10:55;9.50;99.90
4399;DHT22;2213;49.720;7.296;2023-05-14T03:13:23;9.50;99.90
4399;DHT22;2213;49.720;7.296;2023-05-14T03:15:54;9.60;99.90
4399;DHT22;2213;49.720;7.296;2023-05-14T03:18:23;9.50;99.90
4399;DHT22;2213;49.720;7.296;2023-05-14T03:20:54;9.40;99.90
4399;DHT22;2213;49.720;7.296;2023-05-14T03:23:22;9.40;99.90
4399;DHT22;2213;49.720;7.296;2023-05-14T03:25:52;9.40;99.90
4399;DHT22;2213;49.720;7.296;2023-05-14T03:28:21;9.40;99.90
4399;DHT22;2213;49.720;7.296;2023-05-14T03:30:50;9.40;99.90
4399;DHT22;2213;49.720;7.296;2023-05-14T03:33:20;9.30;99.90
4399;DHT22;2213;49.720;7.296;2023-05-14T03:35:49;9.30;99.90
4399;DHT22;2213;49.720;7.296;2023-05-14T03:38:18;9.30;99.90
4399;DHT22;2213;49.720;7.296;2023-05-14T03:40:47;9.30;99.90
4399;DHT22;2213;49.720;7.296;2023-05-14T03:43:16;9.30;99.90
4399;DHT22;2213;49.720;7.296;2023-05-14T03:45:44;9.20;99.90
4399;DHT22;2213;49.720;7.296;2023-05-14T03:48:14;9.20;99.90
4399;DHT22;2213;49.720;7.296;2023-05-14T03:50:44;9.20;99.90
4399;DHT22;2213;49.720;7.296;2023-05-14T03:53:13;9.20;99.90
4399;DHT22;2213;49.720;7.296;2023-05-14T03:55:41;9.10;99.90
4399;DHT22;2213;49.720;7.296;2023-05-14T03:58:10;9.10;99.90
4399;DHT22;2213;49.720;7.296;2023-05-14T04:00:40;9.10;99.90
4399;DHT22;2213;49.720;7.296;2023-05-14T04:03:10;9.10;99.90
4399;DHT22;2213;49.720;7.296;2023-05-14T04:05:39;9.10;99.90
4399;DHT22;2213;49.720;7.296;2023-05-14T04:08:08;9.10;99.90
4399;DHT22;2213;49.720;7.296;2023-05-14T04:10:38;9.10;99.90
4399;DHT22;2213;49.720;7.296;2023-05-14T04:13:06;9.00;99.90
4399;DHT22;2213;49.720;7.296;2023-05-14T04:15:35;9.00;99.90
4399;DHT22;2213;49.720;7.296;2023-05-14T04:18:05;9.00;99.90
4399;DHT22;2213;49.720;7.296;2023-05-14T04:20:34;9.00;99.90
4399;DHT22;2213;49.720;7.296;2023-05-14T04:23:03;9.00;99.90
4399;DHT22;2213;49.720;7.296;2023-05-14T04:25:33;9.00;99.90
4399;DHT22;2213;49.720;7.296;2023-05-14T04:28:01;9.00;99.90
4399;DHT22;2213;49.720;7.296;2023-05-14T04:30:30;9.00;99.90
4399;DHT22;2213;49.720;7.296;2023-05-14T04:32:59;9.00;99.90
4399;DHT22;2213;49.720;7.296;2023-05-14T04:35:28;8.90;99.90
4399;DHT22;2213;49.720;7.296;2023-05-14T04:37:57;8.90;99.90
4399;DHT22;2213;49.720;7.296;2023-05-14T04:40:25;8.90;99.90
4399;DHT22;2213;49.720;7.296;2023-05-14T04:42:55;9.00;99.90
4399;DHT22;2213;49.720;7.296;2023-05-14T04:45:24;9.00;99.90
4399;DHT22;2213;49.720;7.296;2023-05-14T04:47:53;8.90;99.90
4399;DHT22;2213;49.720;7.296;2023-05-14T04:50:22;8.90;99.90
4399;DHT22;2213;49.720;7.296;2023-05-14T04:52:51;8.90;99.90
4399;DHT22;2213;49.720;7.296;2023-05-14T04:55:22;8.90;99.90
4399;DHT22;2213;49.720;7.296;2023-05-14T04:57:51;8.90;99.90
4399;DHT22;2213;49.720;7.296;2023-05-14T05:00:22;8.90;99.90
4399;DHT22;2213;49.720;7.296;2023-05-14T05:02:52;8.90;99.90
4399;DHT22;2213;49.720;7.296;2023-05-14T05:05:20;9.00;99.90
4399;DHT22;2213;49.720;7.296;2023-05-14T05:07:49;9.00;99.90
4399;DHT22;2213;49.720;7.296;2023-05-14T05:10:18;9.00;99.90
4399;DHT22;2213;49.720;7.296;2023-05-14T05:12:46;9.00;99.90
4399;DHT22;2213;49.720;7.296;2023-05-14T05:15:15;9.10;99.90
4399;DHT22;2213;49.720;7.296;2023-05-14T05:17:45;9.10;99.90
4399;DHT22;2213;49.720;7.296;2023-05-14T05:20:16;9.20;99.90
4399;DHT22;2213;49.720;7.296;2023-05-14T05:22:45;9.20;99.90
4399;DHT22;2213;49.720;7.296;2023-05-14T05:25:13;9.20;99.90
4399;DHT22;2213;49.720;7.296;2023-05-14T05:27:43;9.20;99.90
4399;DHT22;2213;49.720;7.296;2023-05-14T05:30:11;9.20;99.90
4399;DHT22;2213;49.720;7.296;2023-05-14T05:32:40;9.20;99.90
4399;DHT22;2213;49.720;7.296;2023-05-14T05:35:10;9.20;99.90
4399;DHT22;2213;49.720;7.296;2023-05-14T05:37:41;9.20;99.90
4399;DHT22;2213;49.720;7.296;2023-05-14T05:40:11;9.30;99.90
4399;DHT22;2213;49.720;7.296;2023-05-14T05:42:43;9.30;99.90
4399;DHT22;2213;49.720;7.296;2023-05-14T05:45:12;9.40;99.90
4399;DHT22;2213;49.720;7.296;2023-05-14T05:47:41;9.40;99.90
4399;DHT22;2213;49.720;7.296;2023-05-14T05:50:16;9.40;99.90
4399;DHT22;2213;49.720;7.296;2023-05-14T05:52:46;9.40;99.90
4399;DHT22;2213;49.720;7.296;2023-05-14T05:55:15;9.40;99.90
4399;DHT22;2213;49.720;7.296;2023-05-14T05:57:46;9.50;99.90
4399;DHT22;2213;49.720;7.296;2023-05-14T06:00:15;9.50;99.90
4399;DHT22;2213;49.720;7.296;2023-05-14T06:02:48;9.60;99.90
4399;DHT22;2213;49.720;7.296;2023-05-14T06:05:21;9.70;99.90
4399;DHT22;2213;49.720;7.296;2023-05-14T06:07:50;9.70;99.90
4399;DHT22;2213;49.720;7.296;2023-05-14T06:10:22;9.70;99.90
4399;DHT22;2213;49.720;7.296;2023-05-14T06:12:52;9.80;99.90
4399;DHT22;2213;49.720;7.296;2023-05-14T06:15:21;9.80;99.90
4399;DHT22;2213;49.720;7.296;2023-05-14T06:17:51;9.90;99.90
4399;DHT22;2213;49.720;7.296;2023-05-14T06:20:21;9.90;99.90
4399;DHT22;2213;49.720;7.296;2023-05-14T06:22:51;9.90;99.90
4399;DHT22;2213;49.720;7.296;2023-05-14T06:25:22;10.00;99.90
4399;DHT22;2213;49.720;7.296;2023-05-14T06:27:54;10.10;99.90
4399;DHT22;2213;49.720;7.296;2023-05-14T06:30:23;10.10;99.90
4399;DHT22;2213;49.720;7.296;2023-05-14T06:32:52;10.20;99.90
4399;DHT22;2213;49.720;7.296;2023-05-14T06:35:23;10.20;99.90
4399;DHT22;2213;49.720;7.296;2023-05-14T06:37:51;10.30;99.90
4399;DHT22;2213;49.720;7.296;2023-05-14T06:40:20;10.40;99.90
4399;DHT22;2213;49.720;7.296;2023-05-14T06:42:49;10.40;99.90
4399;DHT22;2213;49.720;7.296;2023-05-14T06:45:17;10.50;99.90
4399;DHT22;2213;49.720;7.296;2023-05-14T06:47:48;10.60;99.90
4399;DHT22;2213;49.720;7.296;2023-05-14T06:50:17;10.70;99.90
4399;DHT22;2213;49.720;7.296;2023-05-14T06:52:48;10.80;99.90
4399;DHT22;2213;49.720;7.296;2023-05-14T06:55:19;10.80;99.90
4399;DHT22;2213;49.720;7.296;2023-05-14T06:57:48;10.80;99.90
4399;DHT22;2213;49.720;7.296;2023-05-14T07:00:19;10.90;99.90
4399;DHT22;2213;49.720;7.296;2023-05-14T07:02:48;11.00;99.90
4399;DHT22;2213;49.720;7.296;2023-05-14T07:05:17;11.10;99.90
4399;DHT22;2213;49.720;7.296;2023-05-14T07:07:49;11.00;99.90
4399;DHT22;2213;49.720;7.296;2023-05-14T07:10:18;11.10;99.90
4399;DHT22;2213;49.720;7.296;2023-05-14T07:12:49;11.20;99.90
4399;DHT22;2213;49.720;7.296;2023-05-14T07:15:18;11.30;99.90
4399;DHT22;2213;49.720;7.296;2023-05-14T07:17:47;11.50;99.90
4399;DHT22;2213;49.720;7.296;2023-05-14T07:20:17;11.60;99.90
4399;DHT22;2213;49.720;7.296;2023-05-14T07:22:52;11.70;99.90
4399;DHT22;2213;49.720;7.296;2023-05-14T07:25:21;11.70;99.90
4399;DHT22;2213;49.720;7.296;2023-05-14T07:27:49;11.80;99.90
4399;DHT22;2213;49.720;7.296;2023-05-14T07:30:18;11.90;99.90
4399;DHT22;2213;49.720;7.296;2023-05-14T07:32:47;12.00;99.90
4399;DHT22;2213;49.720;7.296;2023-05-14T07:35:17;12.10;99.90
4399;DHT22;2213;49.720;7.296;2023-05-14T07:37:46;12.20;99.90
4399;DHT22;2213;49.720;7.296;2023-05-14T07:40:17;12.40;99.90
4399;DHT22;2213;49.720;7.296;2023-05-14T07:42:46;12.40;99.90
4399;DHT22;2213;49.720;7.296;2023-05-14T07:45:15;12.50;99.90
4399;DHT22;2213;49.720;7.296;2023-05-14T07:47:43;12.60;99.90
4399;DHT22;2213;49.720;7.296;2023-05-14T07:50:12;12.60;99.90
4399;DHT22;2213;49.720;7.296;2023-05-14T07:52:41;12.80;99.90
4399;DHT22;2213;49.720;7.296;2023-05-14T07:55:10;12.80;99.90
4399;DHT22;2213;49.720;7.296;2023-05-14T07:57:40;12.90;99.90
4399;DHT22;2213;49.720;7.296;2023-05-14T08:00:10;13.00;99.90
4399;DHT22;2213;49.720;7.296;2023-05-14T08:02:39;13.00;99.90
4399;DHT22;2213;49.720;7.296;2023-05-14T08:05:08;13.00;99.90
4399;DHT22;2213;49.720;7.296;2023-05-14T08:07:37;13.20;99.90
4399;DHT22;2213;49.720;7.296;2023-05-14T08:10:07;13.30;99.90
4399;DHT22;2213;49.720;7.296;2023-05-14T08:12:36;13.30;99.90
4399;DHT22;2213;49.720;7.296;2023-05-14T08:15:09;13.30;99.90
4399;DHT22;2213;49.720;7.296;2023-05-14T08:17:38;13.30;99.90
4399;DHT22;2213;49.720;7.296;2023-05-14T08:20:08;13.40;99.90
4399;DHT22;2213;49.720;7.296;2023-05-14T08:22:37;13.60;99.90
4399;DHT22;2213;49.720;7.296;2023-05-14T08:25:07;13.60;99.90
4399;DHT22;2213;49.720;7.296;2023-05-14T08:27:36;13.70;99.90
4399;DHT22;2213;49.720;7.296;2023-05-14T08:30:07;13.70;99.90
4399;DHT22;2213;49.720;7.296;2023-05-14T08:32:36;13.80;99.90
4399;DHT22;2213;49.720;7.296;2023-05-14T08:35:06;13.80;99.90
4399;DHT22;2213;49.720;7.296;2023-05-14T08:37:35;13.80;99.90
4399;DHT22;2213;49.720;7.296;2023-05-14T08:40:04;13.80;99.90
4399;DHT22;2213;49.720;7.296;2023-05-14T08:42:35;13.90;99.90
4399;DHT22;2213;49.720;7.296;2023-05-14T08:45:12;13.90;99.90
4399;DHT22;2213;49.720;7.296;2023-05-14T08:47:46;13.90;99.90
4399;DHT22;2213;49.720;7.296;2023-05-14T08:50:17;13.90;99.90
4399;DHT22;2213;49.720;7.296;2023-05-14T08:52:50;14.00;99.90
4399;DHT22;2213;49.720;7.296;2023-05-14T08:55:21;14.00;99.90
4399;DHT22;2213;49.720;7.296;2023-05-14T08:57:52;14.00;99.90
4399;DHT22;2213;49.720;7.296;2023-05-14T09:00:22;14.10;99.90
4399;DHT22;2213;49.720;7.296;2023-05-14T09:02:53;14.30;99.90
4399;DHT22;2213;49.720;7.296;2023-05-14T09:05:23;14.30;99.90
4399;DHT22;2213;49.720;7.296;2023-05-14T09:07:52;14.40;99.90
4399;DHT22;2213;49.720;7.296;2023-05-14T09:10:20;14.40;99.90
4399;DHT22;2213;49.720;7.296;2023-05-14T09:12:49;14.50;99.90
4399;DHT22;2213;49.720;7.296;2023-05-14T09:15:18;14.50;99.90
4399;DHT22;2213;49.720;7.296;2023-05-14T09:17:48;14.60;99.90
4399;DHT22;2213;49.720;7.296;2023-05-14T09:20:17;14.70;99.90
4399;DHT22;2213;49.720;7.296;2023-05-14T09:22:46;14.80;99.90
4399;DHT22;2213;49.720;7.296;2023-05-14T09:25:15;14.80;99.90
4399;DHT22;2213;49.720;7.296;2023-05-14T09:27:46;14.90;99.90
4399;DHT22;2213;49.720;7.296;2023-05-14T09:30:17;15.10;99.90
4399;DHT22;2213;49.720;7.296;2023-05-14T09:32:47;15.20;99.90
4399;DHT22;2213;49.720;7.296;2023-05-14T09:35:17;15.20;99.90
4399;DHT22;2213;49.720;7.296;2023-05-14T09:37:48;15.30;99.90
4399;DHT22;2213;49.720;7.296;2023-05-14T09:40:20;15.30;99.90
4399;DHT22;2213;49.720;7.296;2023-05-14T09:42:51;15.30;99.90
4399;DHT22;2213;49.720;7.296;2023-05-14T09:45:20;15.30;99.90
4399;DHT22;2213;49.720;7.296;2023-05-14T09:47:49;15.30;99.90
4399;DHT22;2213;49.720;7.296;2023-05-14T09:50:19;15.30;99.90
4399;DHT22;2213;49.720;7.296;2023-05-14T09:52:48;15.40;99.90
4399;DHT22;2213;49.720;7.296;2023-05-14T09:55:18;15.30;99.90
4399;DHT22;2213;49.720;7.296;2023-05-14T09:57:47;15.30;99.90
4399;DHT22;2213;49.720;7.296;2023-05-14T10:00:17;15.40;99.90
4399;DHT22;2213;49.720;7.296;2023-05-14T10:02:49;15.30;99.90
4399;DHT22;2213;49.720;7.296;2023-05-14T10:05:19;15.40;99.90
4399;DHT22;2213;49.720;7.296;2023-05-14T10:07:50;15.40;99.90
4399;DHT22;2213;49.720;7.296;2023-05-14T10:10:21;15.50;99.90
4399;DHT22;2213;49.720;7.296;2023-05-14T10:12:56;15.60;99.90
4399;DHT22;2213;49.720;7.296;2023-05-14T10:15:35;15.60;99.90
4399;DHT22;2213;49.720;7.296;2023-05-14T10:18:09;15.70;99.90
4399;DHT22;2213;49.720;7.296;2023-05-14T10:20:40;15.90;99.90
4399;DHT22;2213;49.720;7.296;2023-05-14T10:23:09;15.90;99.90
4399;DHT22;2213;49.720;7.296;2023-05-14T10:25:39;16.00;99.90
4399;DHT22;2213;49.720;7.296;2023-05-14T10:28:08;16.00;99.90
4399;DHT22;2213;49.720;7.296;2023-05-14T10:30:43;15.90;99.90
4399;DHT22;2213;49.720;7.296;2023-05-14T10:33:14;15.90;99.90
4399;DHT22;2213;49.720;7.296;2023-05-14T10:35:55;15.90;99.90
4399;DHT22;2213;49.720;7.296;2023-05-14T10:38:26;16.00;99.90
4399;DHT22;2213;49.720;7.296;2023-05-14T10:41:00;15.90;99.90
4399;DHT22;2213;49.720;7.296;2023-05-14T10:43:33;16.00;99.90
4399;DHT22;2213;49.720;7.296;2023-05-14T10:46:05;16.10;99.90
4399;DHT22;2213;49.720;7.296;2023-05-14T10:48:39;16.20;99.90
4399;DHT22;2213;49.720;7.296;2023-05-14T10:51:10;16.10;99.90
4399;DHT22;2213;49.720;7.296;2023-05-14T10:53:41;16.40;99.90
4399;DHT22;2213;49.720;7.296;2023-05-14T10:56:11;16.40;99.90
4399;DHT22;2213;49.720;7.296;2023-05-14T10:58:41;16.40;99.90
4399;DHT22;2213;49.720;7.296;2023-05-14T11:01:13;16.40;99.90
4399;DHT22;2213;49.720;7.296;2023-05-14T11:03:44;16.40;99.90
4399;DHT22;2213;49.720;7.296;2023-05-14T11:06:14;16.50;99.90
4399;DHT22;2213;49.720;7.296;2023-05-14T11:08:43;16.50;99.90
4399;DHT22;2213;49.720;7.296;2023-05-14T11:11:12;16.40;99.90
4399;DHT22;2213;49.720;7.296;2023-05-14T11:13:41;16.60;99.90
4399;DHT22;2213;49.720;7.296;2023-05-14T11:16:11;16.70;99.90
4399;DHT22;2213;49.720;7.296;2023-05-14T11:19:00;16.60;99.90
4399;DHT22;2213;49.720;7.296;2023-05-14T11:21:30;16.60;99.90
4399;DHT22;2213;49.720;7.296;2023-05-14T11:23:59;16.60;99.90
4399;DHT22;2213;49.720;7.296;2023-05-14T11:26:28;16.60;99.90
4399;DHT22;2213;49.720;7.296;2023-05-14T11:28:59;16.60;99.90
4399;DHT22;2213;49.720;7.296;2023-05-14T11:31:28;16.70;99.90
4399;DHT22;2213;49.720;7.296;2023-05-14T11:33:58;16.90;99.90
4399;DHT22;2213;49.720;7.296;2023-05-14T11:36:29;16.90;99.90
4399;DHT22;2213;49.720;7.296;2023-05-14T11:38:58;16.70;99.90
4399;DHT22;2213;49.720;7.296;2023-05-14T11:41:27;16.80;99.90
4399;DHT22;2213;49.720;7.296;2023-05-14T11:43:57;16.80;99.90
4399;DHT22;2213;49.720;7.296;2023-05-14T11:46:26;16.80;99.90
4399;DHT22;2213;49.720;7.296;2023-05-14T11:48:58;16.80;99.90
4399;DHT22;2213;49.720;7.296;2023-05-14T11:51:27;16.80;99.90
4399;DHT22;2213;49.720;7.296;2023-05-14T11:53:56;16.90;99.90
4399;DHT22;2213;49.720;7.296;2023-05-14T11:56:25;16.90;99.90
4399;DHT22;2213;49.720;7.296;2023-05-14T11:58:56;16.90;99.90
4399;DHT22;2213;49.720;7.296;2023-05-14T12:01:24;17.00;99.90
4399;DHT22;2213;49.720;7.296;2023-05-14T12:03:54;17.20;99.90
4399;DHT22;2213;49.720;7.296;2023-05-14T12:06:29;17.30;99.90
4399;DHT22;2213;49.720;7.296;2023-05-14T12:08:59;17.30;99.90
4399;DHT22;2213;49.720;7.296;2023-05-14T12:11:30;17.30;99.90
4399;DHT22;2213;49.720;7.296;2023-05-14T12:13:58;17.20;99.90
4399;DHT22;2213;49.720;7.296;2023-05-14T12:16:29;17.20;99.90
4399;DHT22;2213;49.720;7.296;2023-05-14T12:19:01;17.30;99.90
4399;DHT22;2213;49.720;7.296;2023-05-14T12:21:33;17.20;99.90
4399;DHT22;2213;49.720;7.296;2023-05-14T12:24:02;17.20;99.90
4399;DHT22;2213;49.720;7.296;2023-05-14T12:26:32;17.20;99.90
4399;DHT22;2213;49.720;7.296;2023-05-14T12:29:02;17.30;99.90
4399;DHT22;2213;49.720;7.296;2023-05-14T12:31:33;17.40;99.90
4399;DHT22;2213;49.720;7.296;2023-05-14T12:34:03;17.50;99.90
4399;DHT22;2213;49.720;7.296;2023-05-14T12:36:34;17.30;99.90
4399;DHT22;2213;49.720;7.296;2023-05-14T12:39:04;17.40;99.90
4399;DHT22;2213;49.720;7.296;2023-05-14T12:41:32;17.50;99.90
4399;DHT22;2213;49.720;7.296;2023-05-14T12:44:01;17.50;99.90
4399;DHT22;2213;49.720;7.296;2023-05-14T12:46:32;17.50;99.90
4399;DHT22;2213;49.720;7.296;2023-05-14T12:49:01;17.50;99.90
4399;DHT22;2213;49.720;7.296;2023-05-14T12:51:30;17.60;99.90
4399;DHT22;2213;49.720;7.296;2023-05-14T12:54:00;17.60;99.90
4399;DHT22;2213;49.720;7.296;2023-05-14T12:56:29;17.60;99.90
4399;DHT22;2213;49.720;7.296;2023-05-14T12:58:57;17.50;99.90
4399;DHT22;2213;49.720;7.296;2023-05-14T13:01:26;17.50;99.90
4399;DHT22;2213;49.720;7.296;2023-05-14T13:03:55;17.60;99.90
4399;DHT22;2213;49.720;7.296;2023-05-14T13:06:24;17.70;99.90
4399;DHT22;2213;49.720;7.296;2023-05-14T13:08:53;17.70;99.90
4399;DHT22;2213;49.720;7.296;2023-05-14T13:11:24;17.90;99.90
4399;DHT22;2213;49.720;7.296;2023-05-14T13:13:53;17.90;99.90
4399;DHT22;2213;49.720;7.296;2023-05-14T13:16:22;18.20;99.90
4399;DHT22;2213;49.720;7.296;2023-05-14T13:18:50;18.30;99.90
4399;DHT22;2213;49.720;7.296;2023-05-14T13:21:19;18.40;99.90
4399;DHT22;2213;49.720;7.296;2023-05-14T13:23:48;18.70;99.80
4399;DHT22;2213;49.720;7.296;2023-05-14T13:26:17;18.60;99.80
4399;DHT22;2213;49.720;7.296;2023-05-14T13:28:46;18.50;99.80
4399;DHT22;2213;49.720;7.296;2023-05-14T13:31:15;18.60;99.90
4399;DHT22;2213;49.720;7.296;2023-05-14T13:33:44;18.50;99.30
4399;DHT22;2213;49.720;7.296;2023-05-14T13:36:13;18.40;99.20
4399;DHT22;2213;49.720;7.296;2023-05-14T13:38:43;18.40;99.50
4399;DHT22;2213;49.720;7.296;2023-05-14T13:41:12;18.50;99.30
4399;DHT22;2213;49.720;7.296;2023-05-14T13:43:41;18.50;99.30
4399;DHT22;2213;49.720;7.296;2023-05-14T13:46:11;18.40;99.90
4399;DHT22;2213;49.720;7.296;2023-05-14T13:48:40;18.30;99.90
4399;DHT22;2213;49.720;7.296;2023-05-14T13:51:08;18.50;99.00
4399;DHT22;2213;49.720;7.296;2023-05-14T13:53:37;18.60;98.90
4399;DHT22;2213;49.720;7.296;2023-05-14T13:56:05;18.70;99.30
4399;DHT22;2213;49.720;7.296;2023-05-14T13:58:34;18.80;99.30
4399;DHT22;2213;49.720;7.296;2023-05-14T14:01:03;19.00;99.20
4399;DHT22;2213;49.720;7.296;2023-05-14T14:03:33;19.10;99.40
4399;DHT22;2213;49.720;7.296;2023-05-14T14:06:02;19.20;98.90
4399;DHT22;2213;49.720;7.296;2023-05-14T14:08:31;19.30;99.10
4399;DHT22;2213;49.720;7.296;2023-05-14T14:10:59;19.40;99.10
4399;DHT22;2213;49.720;7.296;2023-05-14T14:13:28;19.40;99.10
4399;DHT22;2213;49.720;7.296;2023-05-14T14:15:56;19.50;99.30
4399;DHT22;2213;49.720;7.296;2023-05-14T14:18:25;19.40;99.30
4399;DHT22;2213;49.720;7.296;2023-05-14T14:20:55;19.30;99.30
4399;DHT22;2213;49.720;7.296;2023-05-14T14:23:24;19.20;99.70
4399;DHT22;2213;49.720;7.296;2023-05-14T14:25:55;19.10;99.90
4399;DHT22;2213;49.720;7.296;2023-05-14T14:28:24;19.10;99.70
4399;DHT22;2213;49.720;7.296;2023-05-14T14:30:52;19.10;99.90
4399;DHT22;2213;49.720;7.296;2023-05-14T14:33:21;19.20;99.90
4399;DHT22;2213;49.720;7.296;2023-05-14T14:35:49;19.30;99.90
4399;DHT22;2213;49.720;7.296;2023-05-14T14:38:20;19.40;99.90
4399;DHT22;2213;49.720;7.296;2023-05-14T14:40:48;19.40;99.90
4399;DHT22;2213;49.720;7.296;2023-05-14T14:43:17;19.50;99.90
4399;DHT22;2213;49.720;7.296;2023-05-14T14:45:45;19.20;99.90
4399;DHT22;2213;49.720;7.296;2023-05-14T14:48:22;19.00;99.90
4399;DHT22;2213;49.720;7.296;2023-05-14T14:50:53;18.80;99.90
4399;DHT22;2213;49.720;7.296;2023-05-14T14:53:23;18.60;99.90
4399;DHT22;2213;49.720;7.296;2023-05-14T14:55:52;18.50;99.90
4399;DHT22;2213;49.720;7.296;2023-05-14T14:58:21;18.50;99.90
4399;DHT22;2213;49.720;7.296;2023-05-14T15:00:51;18.40;99.90
4399;DHT22;2213;49.720;7.296;2023-05-14T15:03:21;18.30;99.90
4399;DHT22;2213;49.720;7.296;2023-05-14T15:05:51;18.30;99.90
4399;DHT22;2213;49.720;7.296;2023-05-14T15:08:24;18.20;99.90
4399;DHT22;2213;49.720;7.296;2023-05-14T15:10:53;18.30;99.90
4399;DHT22;2213;49.720;7.296;2023-05-14T15:13:22;18.40;99.90
4399;DHT22;2213;49.720;7.296;2023-05-14T15:15:51;18.50;99.90
4399;DHT22;2213;49.720;7.296;2023-05-14T15:18:20;18.70;99.90
4399;DHT22;2213;49.720;7.296;2023-05-14T15:20:48;18.90;99.90
4399;DHT22;2213;49.720;7.296;2023-05-14T15:23:18;19.10;99.90
4399;DHT22;2213;49.720;7.296;2023-05-14T15:25:48;19.20;99.90
4399;DHT22;2213;49.720;7.296;2023-05-14T15:28:17;19.30;99.90
4399;DHT22;2213;49.720;7.296;2023-05-14T15:30:46;19.40;99.90
4399;DHT22;2213;49.720;7.296;2023-05-14T15:33:15;19.40;99.90
4399;DHT22;2213;49.720;7.296;2023-05-14T15:35:45;19.40;99.60
4399;DHT22;2213;49.720;7.296;2023-05-14T15:38:13;19.50;99.90
4399;DHT22;2213;49.720;7.296;2023-05-14T15:40:42;19.50;99.90
4399;DHT22;2213;49.720;7.296;2023-05-14T15:43:12;19.50;99.90
4399;DHT22;2213;49.720;7.296;2023-05-14T15:45:42;19.50;98.90
4399;DHT22;2213;49.720;7.296;2023-05-14T15:48:11;19.40;98.10
4399;DHT22;2213;49.720;7.296;2023-05-14T15:50:40;19.40;98.40
4399;DHT22;2213;49.720;7.296;2023-05-14T15:53:09;19.30;97.80
4399;DHT22;2213;49.720;7.296;2023-05-14T15:55:38;19.40;97.30
4399;DHT22;2213;49.720;7.296;2023-05-14T15:58:07;19.30;96.20
4399;DHT22;2213;49.720;7.296;2023-05-14T16:00:37;19.30;96.80
4399;DHT22;2213;49.720;7.296;2023-05-14T16:03:05;19.30;96.70
4399;DHT22;2213;49.720;7.296;2023-05-14T16:05:34;19.20;96.60
4399;DHT22;2213;49.720;7.296;2023-05-14T16:08:03;19.20;97.50
4399;DHT22;2213;49.720;7.296;2023-05-14T16:10:32;19.10;97.50
4399;DHT22;2213;49.720;7.296;2023-05-14T16:13:00;19.20;97.40
4399;DHT22;2213;49.720;7.296;2023-05-14T16:15:29;19.20;98.10
4399;DHT22;2213;49.720;7.296;2023-05-14T16:17:58;19.20;98.70
4399;DHT22;2213;49.720;7.296;2023-05-14T16:20:27;19.00;99.10